Sparta, Missouri
Current Conditions -  °F | °C
As of 8:52 PM on Sunday 21 Dec 2014 (Local Time) from KSGF Reporting Station
Overcast Overcast  
Wind Chill: 35°   Ceiling: 6000
Heat Index: 42°   Visibility: 10mi
Dew Point: 35°   Wind: 13mph
Humidity: 76%   Direction: 150°SSE
Pressure: 29.85"   Gusts: NA
Location:  37°N, 93.08°W
Report Text: KSGF 220252Z 15011KT 10SM FEW030 OVC060 06/02 A2985 RMK AO2 SLP111 T00560017 58011
Loading
Personal Weather Stations






























Interactive Weather Map New forecast layout! Learn more

10-Day Weather Forecast

Advertisements
Track Severe Weather on mobile